Time;durP1;ratioP1;P1;durP2;ratioP2;P2;SDS_P1;SDS_P2;PMS_P1;PMS_P2;Temp;Humidity;BMP_temperature;BMP_pressure;BME280_temperature;BME280_humidity;BME280_pressure;Samples;Min_cycle;Max_cycle;Signal;HPM_P1;HPM_P2
2022/06/13 00:00:37;;;;;;;2.70;2.40;;;;;;;20.97;53.86;99830.68;1628242;86;21044;-71
2022/06/13 00:03:04;;;;;;;4.78;2.72;;;;;;;20.84;54.18;99830.10;1628168;86;21443;-70
2022/06/13 00:05:45;;;;;;;4.20;2.90;;;;;;;20.70;54.50;99824.39;1653682;83;21470;-70
2022/06/13 00:08:12;;;;;;;4.53;3.00;;;;;;;20.56;54.84;99825.69;1659391;86;21847;-69
2022/06/13 00:10:39;;;;;;;3.80;2.58;;;;;;;20.44;55.17;99820.55;1659838;86;20992;-69
2022/06/13 00:13:06;;;;;;;3.10;2.80;;;;;;;20.36;55.47;99822.55;1658245;86;20984;-71
2022/06/13 00:15:33;;;;;;;3.33;2.75;;;;;;;20.32;55.58;99822.12;1660120;86;21024;-70
2022/06/13 00:18:01;;;;;;;3.98;3.00;;;;;;;20.29;55.68;99822.53;1659611;85;20976;-71
2022/06/13 00:20:27;;;;;;;3.83;3.20;;;;;;;20.26;55.84;99821.56;1642215;86;21865;-70
2022/06/13 00:22:54;;;;;;;6.20;2.50;;;;;;;20.26;55.93;99820.22;1663350;84;21068;-70
2022/06/13 00:25:21;;;;;;;3.45;3.15;;;;;;;20.27;56.04;99820.56;1661277;84;21133;-72
2022/06/13 00:27:48;;;;;;;4.85;2.85;;;;;;;20.24;55.94;99816.40;1678685;84;21032;-71
2022/06/13 00:30:15;;;;;;;4.62;2.70;;;;;;;20.17;56.00;99819.58;1669043;84;21083;-72
2022/06/13 00:32:41;;;;;;;4.12;3.00;;;;;;;20.12;56.15;99818.50;1657886;84;22966;-71
2022/06/13 00:35:10;;;;;;;5.08;2.90;;;;;;;20.07;56.27;99817.73;1662846;84;21511;-70
2022/06/13 00:37:37;;;;;;;3.25;2.95;;;;;;;20.01;56.32;99819.38;1658925;84;21028;-70
2022/06/13 00:40:07;;;;;;;4.28;2.83;;;;;;;19.97;56.49;99822.11;1665585;84;21044;-70
2022/06/13 00:42:37;;;;;;;5.50;3.00;;;;;;;19.93;56.72;99825.39;1642127;84;21028;-71
2022/06/13 00:45:26;;;;;;;4.40;3.00;;;;;;;19.87;56.80;99825.64;1656814;84;22895;-71
2022/06/13 00:47:54;;;;;;;3.08;2.77;;;;;;;19.81;57.03;99829.12;1656863;84;21021;-75
2022/06/13 00:50:30;;;;;;;3.25;2.80;;;;;;;19.72;57.14;99821.73;1671491;84;21068;-70
2022/06/13 00:53:07;;;;;;;3.95;2.95;;;;;;;19.64;57.28;99822.39;1658730;84;21081;-70
2022/06/13 00:55:44;;;;;;;3.58;2.92;;;;;;;19.55;57.59;99824.34;1653782;84;21017;-70
2022/06/13 00:58:11;;;;;;;3.92;3.42;;;;;;;19.48;57.83;99823.96;1659528;84;21955;-68
2022/06/13 01:00:37;;;;;;;6.03;3.05;;;;;;;19.39;58.04;99824.09;1660549;84;21028;-68
2022/06/13 01:03:04;;;;;;;3.60;3.10;;;;;;;19.34;58.12;99829.72;1660481;84;21113;-69
2022/06/13 01:05:34;;;;;;;4.45;2.95;;;;;;;19.27;58.27;99828.31;1647840;84;21020;-70
2022/06/13 01:08:03;;;;;;;6.83;3.20;;;;;;;19.22;58.47;99827.24;1644125;85;21043;-69
2022/06/13 01:13:14;;;;;;;3.33;2.85;;;;;;;19.10;58.89;99818.86;1649518;85;21001;-70
2022/06/13 01:16:01;;;;;;;3.30;2.72;;;;;;;19.03;59.06;99816.14;1644134;85;21088;-70
2022/06/13 01:18:56;;;;;;;5.45;3.47;;;;;;;18.97;59.26;99818.22;1642349;85;21024;-72
2022/06/13 01:21:40;;;;;;;7.85;3.22;;;;;;;18.86;59.44;99823.56;1645163;85;20991;-68
2022/06/13 01:24:42;;;;;;;3.40;2.98;;;;;;;18.76;59.76;99820.88;1643133;85;22276;-72
2022/06/13 01:27:36;;;;;;;3.65;3.30;;;;;;;18.69;60.00;99820.78;1643782;85;20980;-69
2022/06/13 01:30:27;;;;;;;4.67;3.05;;;;;;;18.64;60.29;99821.02;1649019;85;21581;-69
2022/06/13 01:33:11;;;;;;;3.58;3.00;;;;;;;18.57;60.49;99821.75;1638913;85;21044;-72
2022/06/13 01:35:51;;;;;;;5.55;3.22;;;;;;;18.52;60.54;99818.80;1636525;85;21613;-69
2022/06/13 01:38:33;;;;;;;3.60;3.30;;;;;;;18.45;60.83;99815.73;1654727;85;22721;-69
2022/06/13 01:41:15;;;;;;;4.87;3.27;;;;;;;18.39;60.94;99821.31;1645326;85;21033;-70
2022/06/13 01:44:13;;;;;;;4.17;3.40;;;;;;;18.36;61.05;99819.52;1638333;85;21090;-69
2022/06/13 01:46:58;;;;;;;3.55;3.25;;;;;;;18.31;61.23;99815.55;1650200;85;21653;-71
2022/06/13 01:49:33;;;;;;;3.55;3.25;;;;;;;18.28;61.42;99812.42;1635529;85;21131;-70
2022/06/13 01:52:24;;;;;;;3.85;3.20;;;;;;;18.27;61.60;99806.76;1632715;85;21938;-69
2022/06/13 01:55:11;;;;;;;3.90;3.50;;;;;;;18.25;61.73;99812.30;1642450;85;21092;-70
2022/06/13 01:57:46;;;;;;;4.35;3.58;;;;;;;18.24;61.86;99815.98;1653669;85;20984;-69
2022/06/13 02:00:25;;;;;;;5.15;3.60;;;;;;;18.21;61.99;99813.66;1648731;85;21054;-70
2022/06/13 02:03:17;;;;;;;4.10;3.70;;;;;;;18.19;62.17;99819.70;1615915;87;21148;-69
2022/06/13 02:05:54;;;;;;;7.03;3.60;;;;;;;18.17;62.33;99820.41;1604562;85;20962;-70
2022/06/13 02:08:37;;;;;;;4.30;3.60;;;;;;;18.16;62.45;99821.42;1639962;86;21057;-68
2022/06/13 02:11:07;;;;;;;;;;;;;;;18.15;62.59;99829.62;1634375;85;21535;-68
2022/06/13 02:13:55;;;;;;;4.62;4.15;;;;;;;18.10;62.75;99823.48;1667766;84;20469;-69
2022/06/13 02:16:26;;;;;;;4.97;4.15;;;;;;;18.07;63.05;99816.34;1670415;82;20996;-68
2022/06/13 02:19:12;;;;;;;4.17;3.75;;;;;;;18.02;63.21;99819.55;1671707;84;21937;-68
2022/06/13 02:21:50;;;;;;;4.40;3.62;;;;;;;18.00;63.33;99824.25;1651232;84;20971;-68
2022/06/13 02:24:22;;;;;;;3.90;3.25;;;;;;;18.00;63.40;99822.41;1665776;84;21066;-68
2022/06/13 02:26:52;;;;;;;6.33;3.80;;;;;;;17.98;63.49;99828.45;1668557;84;21073;-68
2022/06/13 02:29:36;;;;;;;4.05;3.75;;;;;;;17.96;63.58;99829.66;1670280;85;20996;-68
2022/06/13 02:32:09;;;;;;;4.50;3.72;;;;;;;17.91;63.74;99830.70;1665895;86;21019;-68
2022/06/13 02:34:47;;;;;;;4.65;3.65;;;;;;;17.88;63.87;99831.90;1653294;84;22315;-69
2022/06/13 02:37:19;;;;;;;3.92;3.52;;;;;;;17.90;63.90;99829.04;1633264;86;21477;-68
2022/06/13 02:39:54;;;;;;;4.25;3.45;;;;;;;17.92;64.05;99827.01;1626662;86;21043;-69
2022/06/13 02:42:28;;;;;;;5.42;3.35;;;;;;;17.96;64.05;99828.32;1656426;86;21036;-68
2022/06/13 02:45:11;;;;;;;5.92;3.65;;;;;;;18.03;64.10;99829.23;1652518;86;21903;-69
2022/06/13 02:47:45;;;;;;;4.83;2.58;;;;;;;18.09;64.12;99835.69;1670695;84;21084;-68
2022/06/13 02:50:20;;;;;;;3.90;3.50;;;;;;;18.16;64.21;99844.14;1671436;84;21571;-69
2022/06/13 02:53:11;;;;;;;4.70;3.47;;;;;;;18.22;64.15;99839.38;1670596;86;21021;-71
2022/06/13 02:55:42;;;;;;;5.30;3.35;;;;;;;18.28;64.06;99842.66;1670416;84;20980;-69
2022/06/13 02:58:35;;;;;;;3.90;3.50;;;;;;;18.40;64.18;99843.02;1667219;84;21867;-69
2022/06/13 03:01:16;;;;;;;4.47;3.17;;;;;;;18.49;64.02;99841.08;1669622;84;21059;-69
2022/06/13 03:03:58;;;;;;;4.55;3.50;;;;;;;18.58;63.84;99844.80;1668922;85;21024;-69
2022/06/13 03:06:46;;;;;;;5.85;3.40;;;;;;;18.69;63.59;99841.36;1662457;85;21009;-69
2022/06/13 03:09:17;;;;;;;4.47;3.12;;;;;;;18.76;63.52;99840.43;1658306;86;21065;-69
2022/06/13 03:11:52;;;;;;;3.55;3.17;;;;;;;18.84;63.38;99838.16;1702538;83;21988;-69
2022/06/13 03:14:37;;;;;;;3.70;3.25;;;;;;;18.90;63.24;99835.22;1683517;83;20969;-69
2022/06/13 03:17:24;;;;;;;4.22;3.40;;;;;;;18.96;63.07;99836.64;1697474;83;20968;-69
2022/06/13 03:20:10;;;;;;;4.67;3.20;;;;;;;19.06;62.89;99841.69;1689524;83;21011;-69
2022/06/13 03:23:10;;;;;;;4.72;3.30;;;;;;;19.16;62.71;99844.89;1680835;83;21027;-69
2022/06/13 03:25:47;;;;;;;4.87;3.37;;;;;;;19.25;62.54;99846.42;1714686;83;21451;-69
2022/06/13 03:28:18;;;;;;;3.55;3.15;;;;;;;19.35;62.31;99858.98;1688040;84;21051;-69
2022/06/13 03:30:55;;;;;;;5.33;3.35;;;;;;;19.43;62.11;99858.86;1709091;83;22218;-69
2022/06/13 03:33:41;;;;;;;3.70;3.30;;;;;;;19.52;61.94;99862.75;1687279;85;21035;-69
2022/06/13 03:36:36;;;;;;;6.00;3.50;;;;;;;19.60;61.74;99870.18;1685519;84;20951;-70
2022/06/13 03:39:28;;;;;;;6.33;3.67;;;;;;;19.70;61.51;99872.02;1689402;83;21778;-70
2022/06/13 03:42:21;;;;;;;7.50;3.30;;;;;;;19.80;61.27;99873.55;1693925;83;21094;-69
2022/06/13 03:44:53;;;;;;;3.70;3.40;;;;;;;19.90;61.10;99880.22;1693672;83;20961;-69
2022/06/13 03:47:28;;;;;;;5.70;3.50;;;;;;;19.99;61.00;99874.21;1713898;82;21043;-69
2022/06/13 03:50:18;;;;;;;4.37;3.50;;;;;;;20.09;60.79;99872.53;1707562;83;21015;-72
2022/06/13 03:52:50;;;;;;;4.72;3.70;;;;;;;20.18;60.67;99880.73;1700578;83;22225;-69
2022/06/13 03:55:23;;;;;;;4.25;3.40;;;;;;;20.27;60.63;99882.25;1688026;83;20951;-69
2022/06/13 03:58:04;;;;;;;3.90;3.50;;;;;;;20.36;60.75;99886.91;1678677;83;21086;-69
2022/06/13 04:00:38;;;;;;;4.60;3.60;;;;;;;20.43;60.81;99888.65;1694711;83;21036;-69
2022/06/13 04:03:03;;;;;;;7.35;3.33;;;;;;;20.49;60.88;99889.21;1688378;83;21449;-69
2022/06/13 04:05:42;;;;;;;3.80;3.37;;;;;;;20.57;60.86;99883.69;1673336;83;21714;-70
2022/06/13 04:08:10;;;;;;;6.22;3.45;;;;;;;20.66;60.67;99884.88;1687564;83;21365;-69
2022/06/13 04:11:04;;;;;;;5.22;3.90;;;;;;;20.77;60.68;99882.95;1687628;83;21071;-69
2022/06/13 04:13:58;;;;;;;5.60;3.73;;;;;;;20.85;60.50;99886.81;1693046;83;21043;-69
2022/06/13 04:16:57;;;;;;;6.05;3.98;;;;;;;20.92;59.73;99888.98;1699626;82;21447;-69
2022/06/13 04:19:44;;;;;;;5.45;3.55;;;;;;;20.98;59.38;99891.40;1677285;83;21919;-71
2022/06/13 04:22:37;;;;;;;6.12;3.33;;;;;;;21.06;59.13;99896.08;1676658;83;21478;-69
2022/06/13 04:25:12;;;;;;;4.20;3.35;;;;;;;21.13;58.78;99903.66;1669854;83;21073;-69
2022/06/13 04:27:58;;;;;;;4.45;3.62;;;;;;;21.18;58.09;99907.06;1697342;83;21440;-69
2022/06/13 04:30:28;;;;;;;4.65;3.87;;;;;;;21.21;57.80;99906.64;1695715;83;20972;-69
2022/06/13 04:33:06;;;;;;;5.20;3.37;;;;;;;21.22;57.41;99910.98;1690005;83;21794;-69
2022/06/13 04:35:33;;;;;;;5.50;3.33;;;;;;;21.22;57.33;99915.02;1688438;83;21487;-69
2022/06/13 04:38:02;;;;;;;6.15;3.60;;;;;;;21.26;57.40;99914.97;1674162;83;21241;-69
2022/06/13 04:40:28;;;;;;;8.05;3.70;;;;;;;21.33;57.36;99917.17;1689851;83;20987;-69
2022/06/13 04:42:55;;;;;;;3.72;3.40;;;;;;;21.40;57.15;99918.51;1682884;83;21490;-69
2022/06/13 04:45:33;;;;;;;4.35;3.42;;;;;;;21.43;56.74;99918.13;1689678;83;21891;-69
2022/06/13 04:48:01;;;;;;;4.87;3.50;;;;;;;21.47;56.55;99919.36;1675868;83;20948;-69
2022/06/13 04:50:35;;;;;;;7.12;3.60;;;;;;;21.51;56.42;99916.56;1716842;83;21032;-69
2022/06/13 04:53:02;;;;;;;4.03;3.40;;;;;;;21.57;56.34;99921.65;1620910;86;21462;-69
2022/06/13 04:55:36;;;;;;;4.33;3.30;;;;;;;21.59;56.07;99918.23;1689921;83;20965;-69
2022/06/13 04:58:03;;;;;;;3.67;3.17;;;;;;;21.59;56.23;99911.52;1691582;83;21765;-69
2022/06/13 05:00:30;;;;;;;5.83;3.58;;;;;;;21.60;56.16;99903.25;1688719;83;21003;-70
2022/06/13 05:02:56;;;;;;;3.95;3.50;;;;;;;21.67;56.24;99912.67;1688649;83;21033;-69
2022/06/13 05:05:43;;;;;;;4.97;3.33;;;;;;;21.75;56.25;99913.00;1694287;83;21039;-71
2022/06/13 05:08:26;;;;;;;4.85;3.60;;;;;;;21.84;56.12;99909.08;1688848;83;21000;-69
2022/06/13 05:10:56;;;;;;;;;;;;;;;21.91;55.81;99920.15;1683818;83;21814;-69
2022/06/13 05:13:23;;;;;;;4.33;3.12;;;;;;;22.01;55.88;99911.67;1690128;83;20323;-69
2022/06/13 05:15:54;;;;;;;4.47;3.25;;;;;;;22.11;55.71;99922.87;1688513;83;21074;-69
2022/06/13 05:18:32;;;;;;;3.87;3.40;;;;;;;22.18;55.46;99917.46;1688432;83;22316;-68
2022/06/13 05:21:23;;;;;;;4.95;3.40;;;;;;;22.25;55.43;99921.81;1688817;83;20940;-69
2022/06/13 05:24:16;;;;;;;4.05;3.40;;;;;;;22.36;55.13;99931.11;1675358;83;21897;-69
2022/06/13 05:26:44;;;;;;;3.95;3.25;;;;;;;22.40;54.83;99922.11;1703472;82;20995;-69
2022/06/13 05:29:10;;;;;;;5.30;3.67;;;;;;;22.44;54.94;99930.89;1689063;83;21103;-69
2022/06/13 05:31:37;;;;;;;5.62;3.47;;;;;;;22.49;54.95;99927.59;1695831;83;21066;-70
2022/06/13 05:34:07;;;;;;;3.98;3.52;;;;;;;22.54;54.82;99923.73;1664418;85;21501;-69
2022/06/13 05:36:33;;;;;;;5.65;3.40;;;;;;;22.52;54.75;99927.98;1689868;83;21755;-69
2022/06/13 05:39:02;;;;;;;7.80;3.55;;;;;;;22.54;54.96;99929.11;1644445;83;21012;-69
2022/06/13 05:41:28;;;;;;;8.03;3.35;;;;;;;22.62;54.89;99925.37;1683774;83;21502;-69
2022/06/13 05:43:55;;;;;;;5.80;3.50;;;;;;;22.73;54.98;99926.06;1686865;83;20980;-69
2022/06/13 05:46:31;;;;;;;4.97;3.30;;;;;;;22.85;54.88;99921.17;1677478;83;21741;-70
2022/06/13 05:48:58;;;;;;;4.70;3.40;;;;;;;22.99;54.80;99925.18;1666284;84;22876;-69
2022/06/13 05:51:25;;;;;;;4.15;3.70;;;;;;;23.13;54.56;99918.16;1681454;83;20989;-70
2022/06/13 05:53:53;;;;;;;4.50;3.30;;;;;;;23.20;53.92;99923.52;1679538;83;20979;-69
2022/06/13 05:56:20;;;;;;;3.75;3.25;;;;;;;23.26;53.80;99923.17;1674435;83;20952;-71
2022/06/13 05:58:47;;;;;;;5.83;3.25;;;;;;;23.32;53.79;99923.14;1679415;83;21008;-69
2022/06/13 06:01:13;;;;;;;4.87;3.60;;;;;;;23.40;53.42;99919.38;1688929;83;21885;-70
2022/06/13 06:03:41;;;;;;;9.00;3.52;;;;;;;23.45;53.35;99920.06;1688393;85;21031;-70
2022/06/13 06:06:21;;;;;;;3.92;3.27;;;;;;;23.53;53.15;99917.94;1685541;83;21411;-70
2022/06/13 06:08:47;;;;;;;5.28;3.60;;;;;;;23.57;52.71;99916.47;1690636;84;21011;-69
2022/06/13 06:11:16;;;;;;;4.00;3.35;;;;;;;23.54;52.55;99921.45;1697442;83;20958;-72
2022/06/13 06:13:43;;;;;;;5.05;3.47;;;;;;;23.57;52.95;99919.70;1626059;87;21963;-70
2022/06/13 06:16:17;;;;;;;5.60;3.10;;;;;;;23.66;52.61;99920.59;1659602;86;21048;-69
2022/06/13 06:18:45;;;;;;;4.97;3.27;;;;;;;23.72;52.31;99915.36;1656088;84;21036;-70
2022/06/13 06:21:12;;;;;;;6.37;3.17;;;;;;;23.79;52.25;99925.05;1658210;84;21024;-69
2022/06/13 06:23:39;;;;;;;4.45;3.20;;;;;;;23.86;51.41;99921.80;1657686;84;20969;-69
2022/06/13 06:26:06;;;;;;;3.95;3.17;;;;;;;23.92;51.61;99920.08;1655965;84;22903;-71
2022/06/13 06:28:33;;;;;;;4.90;2.80;;;;;;;24.02;51.63;99919.05;1653018;84;21033;-70
2022/06/13 06:31:03;;;;;;;4.72;3.25;;;;;;;24.14;51.06;99921.36;1661706;84;21079;-69
2022/06/13 06:33:32;;;;;;;5.92;3.00;;;;;;;24.23;50.44;99910.59;1657774;84;21095;-69
2022/06/13 06:35:58;;;;;;;3.77;3.12;;;;;;;24.26;50.27;99914.18;1659773;84;20977;-70
2022/06/13 06:38:26;;;;;;;8.08;3.10;;;;;;;24.25;50.20;99916.58;1659753;84;21954;-70
2022/06/13 06:40:53;;;;;;;5.15;2.80;;;;;;;24.28;50.15;99911.25;1653076;84;21004;-69
2022/06/13 06:43:20;;;;;;;4.67;3.30;;;;;;;24.37;50.10;99911.30;1650361;84;21062;-69
2022/06/13 06:45:47;;;;;;;5.03;3.17;;;;;;;24.47;50.09;99915.66;1659531;84;20965;-69
2022/06/13 06:48:18;;;;;;;3.42;3.08;;;;;;;24.53;49.51;99912.60;1671296;84;21498;-69
2022/06/13 06:50:48;;;;;;;3.72;2.80;;;;;;;24.59;49.83;99916.27;1663106;84;22638;-69
2022/06/13 06:53:14;;;;;;;4.03;3.12;;;;;;;24.76;49.87;99917.33;1648553;86;21074;-69
2022/06/13 07:01:13;;;;;;;3.60;2.90;;;;;;;25.00;48.39;99915.07;1665519;84;21024;-69
2022/06/13 07:03:40;;;;;;;3.52;2.92;;;;;;;25.04;47.76;99919.52;1652595;84;21944;-72
2022/06/13 07:06:07;;;;;;;5.95;3.02;;;;;;;25.04;48.10;99917.64;1660669;84;21024;-70
2022/06/13 07:08:39;;;;;;;3.72;2.77;;;;;;;25.05;48.14;99911.17;1654900;84;21024;-71
2022/06/13 07:13:52;;;;;;;6.45;2.70;;;;;;;25.10;48.37;99907.81;1655795;84;21032;-71
2022/06/13 07:16:19;;;;;;;3.33;2.60;;;;;;;25.22;48.32;99905.97;1659589;84;22284;-70
2022/06/13 07:18:46;;;;;;;4.50;2.65;;;;;;;25.35;47.77;99910.36;1689829;83;20950;-69
2022/06/13 07:21:14;;;;;;;6.47;2.70;;;;;;;25.45;47.47;99912.52;1689176;85;21075;-69
2022/06/13 07:23:40;;;;;;;5.35;2.50;;;;;;;25.49;46.68;99912.37;1696194;83;21103;-71
2022/06/13 07:26:07;;;;;;;3.85;3.10;;;;;;;25.52;46.73;99911.37;1696531;83;21433;-70
2022/06/13 07:28:33;;;;;;;2.67;2.35;;;;;;;25.60;46.47;99908.87;1688216;85;21566;-69
2022/06/13 07:31:00;;;;;;;4.42;2.52;;;;;;;25.71;46.33;99909.98;1695671;83;20968;-70
2022/06/13 07:33:26;;;;;;;3.70;2.15;;;;;;;25.80;45.74;99909.94;1661339;83;21055;-70
2022/06/13 07:35:53;;;;;;;2.80;2.50;;;;;;;25.87;45.36;99902.55;1687357;85;21228;-71
2022/06/13 07:38:19;;;;;;;4.67;2.40;;;;;;;25.86;45.67;99904.93;1692278;83;20944;-68
2022/06/13 07:40:51;;;;;;;5.72;2.22;;;;;;;25.88;45.32;99900.96;1689677;83;21943;-71
2022/06/13 07:43:28;;;;;;;7.25;2.50;;;;;;;25.94;45.11;99912.71;1687378;85;20948;-70
2022/06/13 07:45:57;;;;;;;2.85;2.37;;;;;;;26.06;44.96;99911.40;1693484;83;21015;-69
2022/06/13 07:48:25;;;;;;;3.98;2.27;;;;;;;26.13;44.54;99906.67;1687588;82;21018;-69
2022/06/13 07:50:55;;;;;;;4.92;2.22;;;;;;;26.19;44.40;99914.69;1684510;82;21027;-68
2022/06/13 07:53:22;;;;;;;2.47;1.80;;;;;;;26.28;44.12;99909.75;1679486;82;23403;-69
2022/06/13 07:55:49;;;;;;;2.47;2.22;;;;;;;26.37;44.34;99910.22;1704003;82;21031;-68
2022/06/13 07:58:21;;;;;;;3.15;2.15;;;;;;;26.51;43.96;99912.45;1689377;82;21112;-70
2022/06/13 08:00:49;;;;;;;4.40;2.02;;;;;;;26.69;43.68;99908.78;1698961;82;20982;-71
2022/06/13 08:03:23;;;;;;;4.55;2.10;;;;;;;26.84;43.12;99901.52;1692255;82;21173;-69
2022/06/13 08:05:51;;;;;;;3.72;1.95;;;;;;;26.98;43.45;99906.12;1724947;82;22930;-74
2022/06/13 08:08:18;;;;;;;3.47;2.00;;;;;;;27.16;43.36;99904.63;1697688;82;21629;-74
2022/06/13 08:10:47;;;;;;;2.37;1.85;;;;;;;27.38;42.65;99904.75;1669815;84;21021;-72
2022/06/13 08:13:16;;;;;;;3.25;2.20;;;;;;;27.54;42.00;99906.69;1672106;84;21123;-74
2022/06/13 08:15:44;;;;;;;2.72;2.08;;;;;;;27.72;41.30;99909.75;1666167;84;21501;-69
2022/06/13 08:18:13;;;;;;;2.30;2.10;;;;;;;27.78;40.90;99906.56;1641374;84;21537;-71
2022/06/13 08:20:41;;;;;;;2.72;1.85;;;;;;;27.66;40.65;99903.39;1669292;84;21300;-69
2022/06/13 08:23:10;;;;;;;2.22;2.02;;;;;;;27.56;41.01;99905.90;1678270;84;21015;-70
2022/06/13 08:25:38;;;;;;;2.20;2.00;;;;;;;27.59;41.05;99904.58;1662999;84;21030;-70
2022/06/13 08:28:05;;;;;;;3.55;1.90;;;;;;;27.66;40.61;99910.71;1643343;86;21049;-70
2022/06/13 08:30:43;;;;;;;3.47;1.87;;;;;;;27.68;40.61;99910.46;1640037;85;21922;-68
2022/06/13 08:33:10;;;;;;;2.35;1.98;;;;;;;27.72;40.51;99908.92;1632123;85;21065;-72
2022/06/13 08:35:36;;;;;;;2.50;2.10;;;;;;;27.74;40.71;99911.67;1615199;87;21026;-70
2022/06/13 08:38:03;;;;;;;5.28;2.22;;;;;;;27.79;40.36;99904.95;1613431;87;21059;-70
2022/06/13 08:40:45;;;;;;;2.80;1.95;;;;;;;27.91;40.38;99907.08;1659780;85;21143;-70
2022/06/13 08:43:53;;;;;;;3.83;1.85;;;;;;;28.00;39.32;99897.99;1653864;84;21856;-71
2022/06/13 08:46:46;;;;;;;3.62;2.00;;;;;;;28.06;39.48;99899.70;1619027;87;21474;-71
2022/06/13 08:49:44;;;;;;;2.42;1.90;;;;;;;28.08;39.19;99903.52;1666064;84;21462;-69
2022/06/13 08:52:24;;;;;;;1.90;1.80;;;;;;;28.07;39.23;99898.62;1655846;84;21035;-71
2022/06/13 08:55:24;;;;;;;2.30;1.90;;;;;;;28.18;39.57;99894.16;1647489;85;21111;-70
2022/06/13 08:58:12;;;;;;;2.20;1.90;;;;;;;28.35;39.03;99899.08;1653580;84;22956;-74
2022/06/13 09:00:43;;;;;;;3.83;1.85;;;;;;;28.36;38.81;99897.17;1660367;84;21055;-72
2022/06/13 09:03:16;;;;;;;3.53;1.83;;;;;;;28.45;38.69;99899.22;1661108;85;21517;-71
2022/06/13 09:05:54;;;;;;;3.75;2.02;;;;;;;28.63;39.71;99898.10;1617778;86;21092;-72
2022/06/13 09:08:40;;;;;;;1.72;1.62;;;;;;;28.95;38.84;99893.34;1655812;84;22115;-72
2022/06/13 09:11:25;;;;;;;2.77;1.87;;;;;;;29.13;37.60;99903.89;1705441;83;21922;-72
2022/06/13 09:14:23;;;;;;;4.65;1.80;;;;;;;29.07;37.41;99903.03;1694135;84;21492;-72
2022/06/13 09:17:15;;;;;;;2.47;2.00;;;;;;;29.01;37.84;99901.86;1694844;84;21072;-72
2022/06/13 09:19:48;;;;;;;4.00;2.00;;;;;;;29.06;37.89;99895.95;1694717;84;21025;-71
2022/06/13 09:22:20;;;;;;;4.40;1.87;;;;;;;29.10;37.38;99895.44;1696131;83;21085;-72
2022/06/13 09:25:01;;;;;;;6.97;1.80;;;;;;;29.16;37.49;99893.89;1694887;84;22304;-72
2022/06/13 09:27:35;;;;;;;4.53;1.70;;;;;;;29.27;37.43;99883.39;1694718;84;20969;-72
2022/06/13 09:30:12;;;;;;;5.67;1.87;;;;;;;29.41;37.42;99882.97;1693470;84;20962;-72
2022/06/13 09:32:55;;;;;;;4.92;1.60;;;;;;;29.52;36.53;99876.03;1694748;84;21038;-72
2022/06/13 09:35:29;;;;;;;5.07;1.60;;;;;;;29.58;36.54;99866.84;1685249;84;21120;-72
2022/06/13 09:38:29;;;;;;;4.75;1.50;;;;;;;29.94;35.37;99880.75;1699067;83;22458;-71
2022/06/13 09:41:04;;;;;;;5.75;1.82;;;;;;;29.94;35.37;99880.75;1684726;83;21069;-71
2022/06/13 09:44:01;;;;;;;2.60;1.52;;;;;;;29.88;35.12;99876.34;1653862;86;21036;-71
2022/06/13 09:47:06;;;;;;;1.77;1.60;;;;;;;29.84;35.04;99883.39;1646548;85;21027;-71
2022/06/13 09:49:50;;;;;;;2.58;1.40;;;;;;;29.79;35.18;99873.81;1682408;85;21449;-71
2022/06/13 09:52:32;;;;;;;2.05;1.52;;;;;;;29.79;35.18;99873.81;1683232;85;21880;-71
2022/06/13 09:55:14;;;;;;;2.80;1.55;;;;;;;29.85;34.87;99870.06;1684007;83;21071;-71
2022/06/13 09:57:55;;;;;;;2.05;1.47;;;;;;;29.92;35.01;99872.84;1677487;85;21062;-71
2022/06/13 10:00:32;;;;;;;2.65;1.72;;;;;;;30.05;34.70;99866.12;1677823;84;21056;-71
2022/06/13 10:03:15;;;;;;;1.75;1.40;;;;;;;30.24;34.26;99862.45;1677413;84;20977;-71
2022/06/13 10:05:46;;;;;;;2.87;1.42;;;;;;;30.36;33.38;99863.61;1677672;84;21818;-71
2022/06/13 10:08:28;;;;;;;4.40;1.50;;;;;;;30.43;33.64;99861.47;1677777;85;21510;-71
2022/06/13 10:11:15;;;;;;;3.45;1.40;;;;;;;30.43;33.74;99861.47;1677697;84;21449;-72
2022/06/13 10:14:06;;;;;;;3.12;1.42;;;;;;;30.60;33.31;99858.56;1665205;85;21477;-71
2022/06/13 10:17:00;;;;;;;2.80;1.40;;;;;;;30.72;32.30;99855.09;1681017;83;21494;-71
2022/06/13 10:19:52;;;;;;;1.45;1.35;;;;;;;30.70;31.91;99856.72;1711696;83;21920;-72
2022/06/13 10:22:33;;;;;;;1.97;1.47;;;;;;;30.65;31.43;99855.87;1711873;83;20967;-71
2022/06/13 10:25:18;;;;;;;1.70;1.40;;;;;;;30.61;32.22;99856.11;1660645;85;21028;-72
2022/06/13 10:28:10;;;;;;;1.52;1.40;;;;;;;30.56;31.79;99847.89;1669397;86;20928;-72
2022/06/13 10:30:51;;;;;;;2.02;1.50;;;;;;;30.60;32.42;99857.20;1675157;83;20967;-72
2022/06/13 10:33:29;;;;;;;1.95;1.50;;;;;;;30.71;32.32;99852.91;1677709;84;21850;-72
2022/06/13 10:36:11;;;;;;;4.58;1.27;;;;;;;30.82;32.41;99849.67;1677672;85;21016;-72
2022/06/13 10:38:57;;;;;;;2.72;1.32;;;;;;;31.05;33.28;99851.09;1650079;84;21084;-72
2022/06/13 10:41:26;;;;;;;1.47;1.32;;;;;;;31.35;31.69;99851.70;1631386;86;21036;-72
2022/06/13 10:43:53;;;;;;;1.75;1.40;;;;;;;31.44;31.34;99850.08;1686853;84;21025;-72
2022/06/13 10:46:20;;;;;;;1.30;1.20;;;;;;;31.55;31.11;99848.98;1694458;83;21859;-72
2022/06/13 10:49:01;;;;;;;2.65;1.60;;;;;;;31.69;31.01;99847.91;1694519;84;20973;-72
2022/06/13 10:51:27;;;;;;;3.08;1.35;;;;;;;31.83;30.19;99845.46;1693103;84;21444;-72
2022/06/13 10:54:08;;;;;;;1.98;1.50;;;;;;;31.86;30.53;99844.94;1694622;83;21078;-72
2022/06/13 10:56:44;;;;;;;1.82;1.37;;;;;;;31.94;30.54;99839.44;1689594;84;21100;-72
2022/06/13 10:59:30;;;;;;;1.95;1.40;;;;;;;32.12;30.98;99836.13;1690633;84;21972;-72
2022/06/13 11:02:00;;;;;;;2.08;1.35;;;;;;;32.34;31.08;99829.83;1694976;84;20981;-72
2022/06/13 11:04:37;;;;;;;4.05;1.40;;;;;;;32.67;30.89;99833.78;1719507;83;21422;-72
2022/06/13 11:07:16;;;;;;;1.80;1.30;;;;;;;33.00;30.15;99834.98;1714382;83;21047;-72
2022/06/13 11:09:47;;;;;;;4.58;1.60;;;;;;;33.22;28.83;99829.12;1702994;83;21004;-72
2022/06/13 11:12:20;;;;;;;3.70;1.37;;;;;;;33.27;28.95;99833.73;1670111;85;22401;-72
2022/06/13 11:23:53;;;;;;;2.22;1.30;;;;;;;33.64;27.81;99811.28;1670342;86;21483;-72
2022/06/13 11:29:05;;;;;;;4.85;1.55;;;;;;;33.56;27.88;99811.34;1642893;86;21036;-71
2022/06/13 11:31:32;;;;;;;2.20;1.65;;;;;;;33.66;28.82;99810.98;1641572;87;21076;-71
2022/06/13 11:34:00;;;;;;;3.02;1.40;;;;;;;33.69;28.16;99805.77;1592577;87;21491;-72
2022/06/13 11:36:28;;;;;;;7.47;1.40;;;;;;;33.80;28.09;99796.90;1624647;86;20976;-72
2022/06/13 11:39:05;;;;;;;1.80;1.35;;;;;;;33.91;27.04;99801.19;1652413;84;21796;-72
2022/06/13 11:41:40;;;;;;;2.02;1.40;;;;;;;33.96;27.54;99798.38;1670352;86;21504;-72
2022/06/13 11:44:13;;;;;;;4.83;1.37;;;;;;;34.11;26.90;99799.59;1666764;85;20977;-73
2022/06/13 11:47:00;;;;;;;2.50;1.12;;;;;;;34.11;26.59;99802.34;1660844;86;21051;-73
2022/06/13 11:49:45;;;;;;;3.50;1.20;;;;;;;34.12;27.06;99798.48;1686929;85;21077;-72
2022/06/13 11:55:28;;;;;;;4.33;1.40;;;;;;;34.11;26.83;99794.12;1686962;84;20957;-72
2022/06/13 11:57:58;;;;;;;3.30;1.45;;;;;;;34.13;26.32;99793.82;1677019;83;21067;-72
2022/06/13 12:00:53;;;;;;;2.90;1.50;;;;;;;34.15;26.75;99793.78;1673178;85;21517;-72
2022/06/13 12:03:25;;;;;;;2.58;1.40;;;;;;;34.21;26.72;99797.84;1687010;85;21105;-72
2022/06/13 12:06:11;;;;;;;2.27;1.27;;;;;;;34.24;26.61;99790.41;1687095;85;21924;-73
2022/06/13 12:08:40;;;;;;;3.00;1.20;;;;;;;34.36;26.44;99787.52;1650109;86;22390;-72
2022/06/13 12:11:19;;;;;;;3.90;1.50;;;;;;;34.44;26.74;99775.09;1669957;84;21468;-73
2022/06/13 12:13:48;;;;;;;3.72;1.57;;;;;;;34.57;26.37;99782.62;1669995;84;21011;-72
2022/06/13 12:16:37;;;;;;;2.10;1.30;;;;;;;34.49;26.16;99779.72;1697105;82;21064;-72
2022/06/13 12:19:33;;;;;;;2.25;1.15;;;;;;;34.34;26.70;99771.90;1688065;84;21014;-72
2022/06/13 12:22:20;;;;;;;3.25;1.32;;;;;;;34.49;26.83;99764.08;1670683;86;20940;-72
2022/06/13 12:25:16;;;;;;;1.77;1.30;;;;;;;34.52;27.03;99767.59;1670449;84;20959;-72
2022/06/13 12:28:05;;;;;;;3.70;1.12;;;;;;;34.57;26.81;99773.58;1677987;82;21000;-72
2022/06/13 12:30:54;;;;;;;2.12;1.40;;;;;;;34.74;27.18;99773.86;1706470;82;21510;-71
2022/06/13 12:34:01;;;;;;;3.10;1.37;;;;;;;34.92;26.74;99779.94;1698657;84;22538;-72
2022/06/13 12:36:55;;;;;;;1.50;1.30;;;;;;;35.06;26.57;99777.83;1698449;84;21442;-72
2022/06/13 12:39:33;;;;;;;4.05;1.20;;;;;;;35.32;25.39;99776.84;1711910;83;21066;-72
2022/06/13 12:42:31;;;;;;;2.92;1.45;;;;;;;35.42;24.98;99769.30;1650580;85;21044;-72